Time;durP1;ratioP1;P1;durP2;ratioP2;P2;SDS_P1;SDS_P2;PMS_P1;PMS_P2;Temp;Humidity;BMP_temperature;BMP_pressure;BME280_temperature;BME280_humidity;BME280_pressure;Samples;Min_cycle;Max_cycle;Signal;HPM_P1;HPM_P2
2023/03/18 00:01:51;;;;;;;6.53;5.30;;;;;;;;;;5061995;28;20911;-81
2023/03/18 00:04:19;;;;;;;10.27;6.00;;;;;;;;;;5060389;28;20417;-82
2023/03/18 00:06:45;;;;;;;8.40;6.17;;;;;;;;;;5060041;28;20427;-82
2023/03/18 00:09:12;;;;;;;9.63;6.00;;;;;;;;;;5058008;28;20418;-81
2023/03/18 00:11:39;;;;;;;7.00;5.47;;;;;;;;;;5060372;28;20411;-82
2023/03/18 00:14:08;;;;;;;10.23;5.40;;;;;;;;;;5062942;28;20409;-82
2023/03/18 00:16:35;;;;;;;8.73;6.20;;;;;;;;;;5059933;28;20476;-82
2023/03/18 00:19:02;;;;;;;8.30;4.90;;;;;;;;;;5054073;28;20418;-82
2023/03/18 00:21:29;;;;;;;8.43;5.70;;;;;;;;;;5041949;28;20425;-81
2023/03/18 00:23:57;;;;;;;6.32;5.03;;;;;;;;;;5049618;28;20421;-82
2023/03/18 00:26:24;;;;;;;6.95;5.55;;;;;;;;;;5062873;28;20425;-82
2023/03/18 00:28:51;;;;;;;11.00;6.18;;;;;;;;;;5063617;28;20411;-82
2023/03/18 00:31:19;;;;;;;8.50;4.90;;;;;;;;;;5062846;28;20417;-82
2023/03/18 00:33:46;;;;;;;6.03;5.10;;;;;;;;;;5062151;28;20412;-81
2023/03/18 00:36:14;;;;;;;8.77;5.53;;;;;;;;;;5062362;28;20421;-82
2023/03/18 00:38:41;;;;;;;8.82;5.72;;;;;;;;;;5060678;28;20448;-82
2023/03/18 00:41:11;;;;;;;8.20;5.73;;;;;;;;;;5066794;28;20435;-81
2023/03/18 00:43:44;;;;;;;9.20;6.15;;;;;;;;;;5064154;28;20425;-82
2023/03/18 00:46:11;;;;;;;8.43;5.80;;;;;;;;;;5064143;28;20514;-82
2023/03/18 00:48:39;;;;;;;7.07;5.73;;;;;;;;;;5062070;28;20429;-81
2023/03/18 00:51:06;;;;;;;7.50;5.68;;;;;;;;;;5060883;28;20906;-82
2023/03/18 00:53:33;;;;;;;8.20;5.43;;;;;;;;;;5064129;28;20477;-82
2023/03/18 00:55:59;;;;;;;7.00;5.00;;;;;;;;;;5063523;28;20450;-81
2023/03/18 00:58:29;;;;;;;11.98;5.80;;;;;;;;;;5061278;28;20423;-82
2023/03/18 01:00:55;;;;;;;8.25;5.47;;;;;;;;;;5067240;28;20433;-81
2023/03/18 01:03:24;;;;;;;8.68;5.10;;;;;;;;;;5065149;28;20445;-82
2023/03/18 01:05:53;;;;;;;7.63;5.78;;;;;;;;;;5062932;28;20825;-80
2023/03/18 01:08:20;;;;;;;7.53;5.80;;;;;;;;;;5064938;28;20419;-81
2023/03/18 01:10:47;;;;;;;10.60;5.88;;;;;;;;;;5062908;28;20411;-80
2023/03/18 01:13:13;;;;;;;7.80;5.32;;;;;;;;;;5062349;28;20411;-82
2023/03/18 01:15:40;;;;;;;7.57;5.15;;;;;;;;;;5062268;28;20421;-82
2023/03/18 01:18:10;;;;;;;7.50;5.27;;;;;;;;;;5061281;28;20423;-81
2023/03/18 01:20:36;;;;;;;10.27;5.47;;;;;;;;;;5060904;28;20455;-82
2023/03/18 01:23:04;;;;;;;9.43;5.80;;;;;;;;;;5062502;28;20425;-81
2023/03/18 01:25:31;;;;;;;9.68;6.20;;;;;;;;;;5066305;28;20427;-82
2023/03/18 01:27:58;;;;;;;6.93;5.15;;;;;;;;;;5060111;28;20423;-83
2023/03/18 01:30:25;;;;;;;8.60;6.25;;;;;;;;;;5060287;28;20508;-81
2023/03/18 01:32:51;;;;;;;10.73;6.63;;;;;;;;;;5062960;28;20415;-80
2023/03/18 01:35:18;;;;;;;9.85;6.50;;;;;;;;;;5064728;28;20911;-82
2023/03/18 01:37:45;;;;;;;10.50;7.27;;;;;;;;;;5064747;28;20817;-80
2023/03/18 01:40:14;;;;;;;8.73;6.10;;;;;;;;;;5054866;28;20508;-81
2023/03/18 01:42:41;;;;;;;7.30;6.40;;;;;;;;;;5064176;28;20531;-82
2023/03/18 01:45:09;;;;;;;8.63;6.20;;;;;;;;;;5044750;28;20907;-80
2023/03/18 01:47:36;;;;;;;7.20;5.68;;;;;;;;;;5038737;28;20425;-80
2023/03/18 01:50:03;;;;;;;9.60;5.80;;;;;;;;;;5060442;28;20419;-81
2023/03/18 01:52:31;;;;;;;9.67;6.00;;;;;;;;;;5065298;28;20467;-81
2023/03/18 01:54:59;;;;;;;9.07;6.50;;;;;;;;;;5046442;28;20475;-82
2023/03/18 01:57:27;;;;;;;11.60;6.50;;;;;;;;;;5043260;28;20894;-81
2023/03/18 01:59:56;;;;;;;7.70;5.35;;;;;;;;;;5040800;28;20427;-79
2023/03/18 02:02:24;;;;;;;8.70;6.13;;;;;;;;;;5044111;28;20429;-82
2023/03/18 02:04:52;;;;;;;9.00;5.70;;;;;;;;;;5043707;28;20419;-81
2023/03/18 02:07:20;;;;;;;6.87;5.77;;;;;;;;;;5042328;28;20485;-81
2023/03/18 02:09:47;;;;;;;11.25;6.10;;;;;;;;;;5042230;28;20424;-82
2023/03/18 02:12:16;;;;;;;8.18;6.30;;;;;;;;;;5047509;28;20965;-82
2023/03/18 02:14:45;;;;;;;11.57;6.30;;;;;;;;;;5055865;28;20431;-83
2023/03/18 02:17:14;;;;;;;10.02;6.28;;;;;;;;;;5060466;28;20424;-83
2023/03/18 02:19:47;;;;;;;8.80;6.37;;;;;;;;;;5060020;28;20498;-83
2023/03/18 02:22:17;;;;;;;10.88;6.30;;;;;;;;;;5059715;28;20427;-83
2023/03/18 02:24:49;;;;;;;7.35;5.90;;;;;;;;;;5064772;28;20433;-83
2023/03/18 02:27:18;;;;;;;9.15;6.30;;;;;;;;;;5059222;28;20425;-80
2023/03/18 02:29:46;;;;;;;9.27;6.45;;;;;;;;;;5060517;28;20917;-82
2023/03/18 02:32:13;;;;;;;8.60;6.30;;;;;;;;;;5058444;28;20489;-81
2023/03/18 02:34:40;;;;;;;10.20;5.82;;;;;;;;;;5062157;28;20423;-82
2023/03/18 02:37:07;;;;;;;11.43;7.13;;;;;;;;;;5062555;28;20498;-79
2023/03/18 02:39:34;;;;;;;9.98;6.70;;;;;;;;;;5061546;28;20417;-82
2023/03/18 02:42:01;;;;;;;11.30;7.03;;;;;;;;;;5058916;28;20437;-82
2023/03/18 02:44:29;;;;;;;9.60;6.75;;;;;;;;;;5060047;28;20420;-83
2023/03/18 02:46:56;;;;;;;10.88;6.90;;;;;;;;;;5057410;28;20434;-79
2023/03/18 02:49:23;;;;;;;9.48;6.68;;;;;;;;;;5061663;28;20423;-80
2023/03/18 02:51:51;;;;;;;13.20;7.40;;;;;;;;;;5061703;28;20420;-79
2023/03/18 02:54:21;;;;;;;9.23;6.72;;;;;;;;;;5061516;28;20445;-79
2023/03/18 02:56:48;;;;;;;11.07;7.18;;;;;;;;;;5064927;28;20415;-80
2023/03/18 02:59:15;;;;;;;7.83;6.40;;;;;;;;;;5059594;28;20427;-80
2023/03/18 03:01:45;;;;;;;10.38;7.60;;;;;;;;;;5061177;28;20428;-82
2023/03/18 03:04:12;;;;;;;11.00;7.40;;;;;;;;;;5063857;28;20549;-82
2023/03/18 03:06:40;;;;;;;11.73;7.60;;;;;;;;;;5061142;28;20455;-81
2023/03/18 03:09:08;;;;;;;9.23;6.78;;;;;;;;;;5062911;28;20424;-80
2023/03/18 03:11:35;;;;;;;10.90;7.60;;;;;;;;;;5063204;28;20431;-81
2023/03/18 03:14:01;;;;;;;12.43;8.02;;;;;;;;;;5061270;28;20460;-81
2023/03/18 03:16:28;;;;;;;14.13;7.55;;;;;;;;;;5062339;28;20801;-80
2023/03/18 03:18:56;;;;;;;10.38;7.47;;;;;;;;;;5050240;28;20933;-81
2023/03/18 03:21:22;;;;;;;9.87;7.43;;;;;;;;;;5039649;28;20505;-80
2023/03/18 03:23:49;;;;;;;14.63;7.78;;;;;;;;;;5038896;28;20435;-80
2023/03/18 03:26:18;;;;;;;11.05;8.55;;;;;;;;;;5043002;28;20417;-81
2023/03/18 03:28:44;;;;;;;13.05;8.38;;;;;;;;;;5042711;28;20413;-79
2023/03/18 03:31:12;;;;;;;11.40;8.18;;;;;;;;;;5039818;28;20425;-80
2023/03/18 03:33:40;;;;;;;13.57;8.80;;;;;;;;;;5042790;28;20442;-81
2023/03/18 03:36:09;;;;;;;11.63;8.70;;;;;;;;;;5041150;28;20500;-80
2023/03/18 03:38:36;;;;;;;12.10;8.47;;;;;;;;;;5041010;28;20424;-80
2023/03/18 03:41:02;;;;;;;14.50;8.27;;;;;;;;;;5043401;28;20420;-81
2023/03/18 03:43:28;;;;;;;15.35;8.82;;;;;;;;;;5044132;28;20414;-81
2023/03/18 03:45:55;;;;;;;9.93;8.32;;;;;;;;;;5040994;28;20427;-80
2023/03/18 03:48:22;;;;;;;13.20;8.50;;;;;;;;;;5041217;28;20414;-81
2023/03/18 03:50:50;;;;;;;14.98;8.63;;;;;;;;;;5041380;28;20411;-81
2023/03/18 03:53:18;;;;;;;14.20;8.60;;;;;;;;;;5042916;28;20420;-82
2023/03/18 03:55:44;;;;;;;15.73;9.10;;;;;;;;;;5044322;28;20491;-80
2023/03/18 03:58:11;;;;;;;15.60;10.10;;;;;;;;;;5044551;28;20412;-81
2023/03/18 04:00:37;;;;;;;12.85;8.82;;;;;;;;;;5045236;28;20446;-82
2023/03/18 04:03:04;;;;;;;12.77;9.50;;;;;;;;;;5047681;28;20431;-82
2023/03/18 04:05:31;;;;;;;13.88;9.38;;;;;;;;;;5048312;28;20466;-80
2023/03/18 04:07:58;;;;;;;14.80;10.10;;;;;;;;;;5045884;28;20433;-82
2023/03/18 04:10:27;;;;;;;12.50;9.87;;;;;;;;;;5043753;28;20793;-82
2023/03/18 04:12:53;;;;;;;13.85;9.90;;;;;;;;;;5046572;28;20435;-80
2023/03/18 04:15:21;;;;;;;14.95;9.10;;;;;;;;;;5044873;28;20423;-83
2023/03/18 04:17:48;;;;;;;14.77;9.40;;;;;;;;;;5046632;28;20427;-80
2023/03/18 04:20:15;;;;;;;13.82;9.60;;;;;;;;;;5045671;28;20502;-79
2023/03/18 04:22:42;;;;;;;12.75;8.95;;;;;;;;;;5047475;28;20802;-81
2023/03/18 04:25:10;;;;;;;13.57;9.25;;;;;;;;;;5044293;28;20425;-81
2023/03/18 04:27:39;;;;;;;15.35;9.70;;;;;;;;;;5045530;28;20478;-80
2023/03/18 04:30:06;;;;;;;14.65;9.25;;;;;;;;;;5045636;28;20425;-80
2023/03/18 04:32:32;;;;;;;15.15;10.02;;;;;;;;;;5042736;28;20425;-80
2023/03/18 04:34:59;;;;;;;13.00;9.95;;;;;;;;;;5044474;28;20421;-79
2023/03/18 04:37:25;;;;;;;13.93;9.50;;;;;;;;;;5043107;28;21122;-80
2023/03/18 04:39:52;;;;;;;13.70;9.63;;;;;;;;;;5044281;28;20424;-81
2023/03/18 04:42:18;;;;;;;13.25;10.00;;;;;;;;;;5044001;28;20415;-81
2023/03/18 04:44:46;;;;;;;13.90;9.75;;;;;;;;;;5044323;28;20418;-80
2023/03/18 04:47:13;;;;;;;15.43;10.07;;;;;;;;;;5047443;28;20845;-81
2023/03/18 04:49:40;;;;;;;13.77;9.63;;;;;;;;;;5040657;28;20461;-81
2023/03/18 04:52:07;;;;;;;12.27;9.27;;;;;;;;;;5044041;28;20492;-82
2023/03/18 04:54:36;;;;;;;17.48;9.63;;;;;;;;;;5044094;28;20473;-82
2023/03/18 04:57:02;;;;;;;15.20;10.57;;;;;;;;;;5043711;28;20506;-82
2023/03/18 04:59:28;;;;;;;16.95;10.40;;;;;;;;;;5046860;28;20425;-83
2023/03/18 05:01:56;;;;;;;13.75;10.40;;;;;;;;;;5043224;28;20888;-80
2023/03/18 05:04:24;;;;;;;14.70;9.70;;;;;;;;;;5042114;28;20945;-81
2023/03/18 05:06:51;;;;;;;16.17;10.90;;;;;;;;;;5044556;28;20440;-82
2023/03/18 05:09:18;;;;;;;15.38;11.13;;;;;;;;;;5041544;28;20420;-81
2023/03/18 05:11:46;;;;;;;15.80;11.38;;;;;;;;;;5042978;28;20499;-80
2023/03/18 05:14:14;;;;;;;15.98;10.40;;;;;;;;;;5044510;28;20456;-83
2023/03/18 05:16:41;;;;;;;15.50;10.60;;;;;;;;;;5045371;28;20431;-82
2023/03/18 05:19:09;;;;;;;17.20;10.75;;;;;;;;;;5040056;28;20427;-80
2023/03/18 05:21:36;;;;;;;13.43;10.88;;;;;;;;;;5040843;28;20421;-80
2023/03/18 05:24:03;;;;;;;16.65;10.70;;;;;;;;;;5038973;28;20446;-83
2023/03/18 05:26:29;;;;;;;15.40;11.00;;;;;;;;;;5044238;28;20413;-80
2023/03/18 05:28:57;;;;;;;19.25;11.23;;;;;;;;;;5042848;28;20417;-80
2023/03/18 05:31:24;;;;;;;18.87;11.50;;;;;;;;;;5046325;28;20431;-80
2023/03/18 05:33:50;;;;;;;16.48;11.77;;;;;;;;;;5043725;28;20426;-83
2023/03/18 05:36:18;;;;;;;16.63;11.48;;;;;;;;;;5044613;28;20425;-82
2023/03/18 05:38:45;;;;;;;15.48;10.70;;;;;;;;;;5038910;28;20521;-80
2023/03/18 05:41:11;;;;;;;15.85;11.30;;;;;;;;;;5040655;28;20426;-82
2023/03/18 05:43:38;;;;;;;16.30;11.85;;;;;;;;;;5041127;28;20422;-80
2023/03/18 05:46:04;;;;;;;14.60;11.25;;;;;;;;;;5043475;28;20536;-81
2023/03/18 05:48:31;;;;;;;17.65;11.73;;;;;;;;;;5038426;28;20988;-80
2023/03/18 05:50:58;;;;;;;17.95;11.40;;;;;;;;;;5041890;28;20426;-79
2023/03/18 05:53:26;;;;;;;17.83;11.43;;;;;;;;;;5044790;28;20900;-80
2023/03/18 05:55:53;;;;;;;16.05;12.30;;;;;;;;;;5047768;28;20421;-80
2023/03/18 05:58:19;;;;;;;16.85;11.25;;;;;;;;;;5040173;28;20409;-80
2023/03/18 06:00:47;;;;;;;18.25;12.65;;;;;;;;;;5042143;28;20457;-80
2023/03/18 06:03:13;;;;;;;16.23;12.50;;;;;;;;;;5044427;28;20548;-83
2023/03/18 06:05:40;;;;;;;15.98;12.32;;;;;;;;;;5045658;28;20437;-81
2023/03/18 06:08:08;;;;;;;16.90;12.00;;;;;;;;;;5042367;28;20435;-81
2023/03/18 06:10:36;;;;;;;15.75;11.90;;;;;;;;;;5041873;28;20804;-80
2023/03/18 06:13:02;;;;;;;21.23;12.65;;;;;;;;;;5045026;28;20919;-80
2023/03/18 06:15:30;;;;;;;17.75;13.18;;;;;;;;;;5061767;28;20425;-80
2023/03/18 06:17:57;;;;;;;20.70;13.27;;;;;;;;;;5063784;28;20506;-81
2023/03/18 06:20:24;;;;;;;19.33;14.35;;;;;;;;;;5062680;28;20471;-81
2023/03/18 06:22:50;;;;;;;17.00;13.40;;;;;;;;;;5067352;28;20415;-81
2023/03/18 06:25:18;;;;;;;17.20;12.52;;;;;;;;;;5059441;28;20415;-81
2023/03/18 06:27:46;;;;;;;18.67;11.90;;;;;;;;;;5062676;28;20924;-81
2023/03/18 06:30:14;;;;;;;17.40;12.83;;;;;;;;;;5060287;28;20496;-80
2023/03/18 06:32:40;;;;;;;18.98;11.85;;;;;;;;;;5061626;28;20441;-81
2023/03/18 06:35:07;;;;;;;15.15;12.02;;;;;;;;;;5063060;28;20427;-80
2023/03/18 06:37:33;;;;;;;15.75;12.15;;;;;;;;;;5062985;28;20426;-80
2023/03/18 06:40:00;;;;;;;15.48;12.38;;;;;;;;;;5059124;28;20421;-82
2023/03/18 06:42:26;;;;;;;18.73;12.68;;;;;;;;;;5060429;28;20432;-81
2023/03/18 06:44:54;;;;;;;18.75;12.90;;;;;;;;;;5061297;28;20429;-80
2023/03/18 06:47:21;;;;;;;15.80;12.95;;;;;;;;;;5061583;28;20425;-79
2023/03/18 06:49:48;;;;;;;19.27;13.70;;;;;;;;;;5061571;28;20426;-80
2023/03/18 06:52:14;;;;;;;21.05;13.85;;;;;;;;;;5063794;28;20423;-80
2023/03/18 06:54:41;;;;;;;19.15;12.88;;;;;;;;;;5061844;28;20442;-80
2023/03/18 06:57:08;;;;;;;18.17;13.93;;;;;;;;;;5060210;28;20436;-80
2023/03/18 06:59:35;;;;;;;20.13;14.77;;;;;;;;;;5063341;28;20446;-80
2023/03/18 07:02:04;;;;;;;17.43;13.90;;;;;;;;;;5062024;28;20540;-81
2023/03/18 07:04:32;;;;;;;19.63;14.73;;;;;;;;;;5062246;28;20430;-80
2023/03/18 07:06:59;;;;;;;22.67;15.30;;;;;;;;;;5061421;28;20444;-79
2023/03/18 07:09:26;;;;;;;25.20;14.93;;;;;;;;;;5049393;28;20475;-80
2023/03/18 07:11:53;;;;;;;23.98;15.07;;;;;;;;;;5041347;28;20451;-81
2023/03/18 07:14:22;;;;;;;18.92;14.60;;;;;;;;;;5050836;28;20424;-81
2023/03/18 07:16:48;;;;;;;21.30;16.20;;;;;;;;;;5063801;28;20438;-80
2023/03/18 07:19:17;;;;;;;19.15;14.80;;;;;;;;;;5062229;28;20420;-80
2023/03/18 07:21:45;;;;;;;18.70;14.73;;;;;;;;;;5059492;28;20419;-80
2023/03/18 07:24:11;;;;;;;23.03;14.83;;;;;;;;;;5060386;28;20421;-80
2023/03/18 07:26:38;;;;;;;21.25;14.85;;;;;;;;;;5062240;28;20423;-81
2023/03/18 07:29:07;;;;;;;21.27;15.20;;;;;;;;;;5059862;28;20923;-78
2023/03/18 07:31:33;;;;;;;24.50;16.08;;;;;;;;;;5060230;28;20482;-80
2023/03/18 07:34:00;;;;;;;19.90;15.80;;;;;;;;;;5058486;28;20411;-79
2023/03/18 07:36:27;;;;;;;23.48;15.70;;;;;;;;;;5059814;28;20431;-81
2023/03/18 07:38:54;;;;;;;21.67;15.07;;;;;;;;;;5063482;28;20819;-80
2023/03/18 07:41:20;;;;;;;21.75;14.95;;;;;;;;;;5058467;28;20423;-81
2023/03/18 07:43:51;;;;;;;23.20;15.50;;;;;;;;;;5061669;28;20408;-81
2023/03/18 07:46:17;;;;;;;21.65;15.55;;;;;;;;;;5061654;28;20441;-80
2023/03/18 07:48:44;;;;;;;21.38;15.55;;;;;;;;;;5064197;28;20421;-81
2023/03/18 07:51:11;;;;;;;20.98;15.75;;;;;;;;;;5060886;28;20431;-81
2023/03/18 07:53:39;;;;;;;23.63;16.50;;;;;;;;;;5060652;28;20989;-79
2023/03/18 07:56:06;;;;;;;21.75;15.38;;;;;;;;;;5062174;28;20444;-80
2023/03/18 07:58:33;;;;;;;23.55;14.90;;;;;;;;;;5062685;28;21273;-80
2023/03/18 08:00:59;;;;;;;21.48;15.45;;;;;;;;;;5061644;28;20430;-82
2023/03/18 08:03:26;;;;;;;21.15;15.75;;;;;;;;;;5042069;28;20409;-81
2023/03/18 08:05:53;;;;;;;21.77;16.65;;;;;;;;;;5056352;28;20911;-83
2023/03/18 08:08:20;;;;;;;20.05;15.30;;;;;;;;;;5062023;28;20430;-79
2023/03/18 08:10:48;;;;;;;22.15;16.50;;;;;;;;;;5058791;28;20492;-81
2023/03/18 08:13:15;;;;;;;24.98;16.25;;;;;;;;;;5059078;28;20403;-81
2023/03/18 08:15:41;;;;;;;22.90;16.92;;;;;;;;;;5062716;28;20423;-80
2023/03/18 08:18:08;;;;;;;25.58;16.00;;;;;;;;;;5059172;28;20541;-80
2023/03/18 08:20:35;;;;;;;23.08;16.75;;;;;;;;;;5061703;28;20423;-82
2023/03/18 08:23:02;;;;;;;21.85;17.25;;;;;;;;;;5063759;28;20925;-81
2023/03/18 08:25:29;;;;;;;25.05;17.13;;;;;;;;;;5065351;28;20423;-82
2023/03/18 08:27:57;;;;;;;22.37;17.00;;;;;;;;;;5065293;28;20917;-80
2023/03/18 08:30:27;;;;;;;22.90;17.37;;;;;;;;;;5058860;28;20541;-80
2023/03/18 08:32:54;;;;;;;21.83;16.88;;;;;;;;;;5057982;28;20418;-81
2023/03/18 08:35:20;;;;;;;21.77;16.03;;;;;;;;;;5062765;28;20423;-83
2023/03/18 08:37:50;;;;;;;21.02;16.17;;;;;;;;;;5062662;28;20415;-81
2023/03/18 08:40:16;;;;;;;23.13;18.00;;;;;;;;;;5062846;28;20860;-83
2023/03/18 08:42:44;;;;;;;21.98;16.50;;;;;;;;;;5060874;28;20918;-81
2023/03/18 08:45:13;;;;;;;28.88;18.30;;;;;;;;;;5062016;28;20413;-82
2023/03/18 08:47:40;;;;;;;20.92;16.63;;;;;;;;;;5063675;28;20432;-80
2023/03/18 08:50:07;;;;;;;22.55;17.80;;;;;;;;;;5064784;28;20484;-81
2023/03/18 08:52:34;;;;;;;22.80;16.42;;;;;;;;;;5065663;28;20423;-79
2023/03/18 08:55:01;;;;;;;25.38;17.40;;;;;;;;;;5063799;28;20422;-81
2023/03/18 08:57:27;;;;;;;22.17;16.67;;;;;;;;;;5061248;28;20411;-80
2023/03/18 08:59:54;;;;;;;23.38;17.08;;;;;;;;;;5065573;28;20406;-81
2023/03/18 09:02:22;;;;;;;20.13;15.30;;;;;;;;;;5061249;28;20916;-83
2023/03/18 09:04:49;;;;;;;21.10;16.10;;;;;;;;;;5065364;28;20930;-82
2023/03/18 09:07:15;;;;;;;19.97;15.63;;;;;;;;;;5067919;28;20419;-81
2023/03/18 09:09:42;;;;;;;21.30;14.77;;;;;;;;;;5065124;28;20420;-84
2023/03/18 09:12:10;;;;;;;19.10;14.55;;;;;;;;;;5062401;28;20419;-81
2023/03/18 09:14:37;;;;;;;21.15;15.00;;;;;;;;;;5061905;28;20412;-83
2023/03/18 09:17:04;;;;;;;18.38;14.25;;;;;;;;;;5065931;28;20432;-83
2023/03/18 09:19:32;;;;;;;18.63;14.70;;;;;;;;;;5065156;28;20798;-83
2023/03/18 09:21:58;;;;;;;19.23;14.17;;;;;;;;;;5065136;28;20439;-81
2023/03/18 09:24:25;;;;;;;20.90;15.23;;;;;;;;;;5067299;28;20412;-82
2023/03/18 09:26:51;;;;;;;20.60;15.32;;;;;;;;;;5065042;28;20422;-83
2023/03/18 09:29:17;;;;;;;17.65;14.70;;;;;;;;;;5065649;28;20422;-82
2023/03/18 09:31:44;;;;;;;19.88;16.20;;;;;;;;;;5066022;28;20526;-83
2023/03/18 09:34:12;;;;;;;23.52;16.30;;;;;;;;;;5054388;28;20421;-85
2023/03/18 09:36:42;;;;;;;22.45;18.27;;;;;;;;;;5044098;28;20449;-81
2023/03/18 09:39:08;;;;;;;25.27;19.60;;;;;;;;;;5040903;28;20425;-81
2023/03/18 09:41:43;;;;;;;25.02;19.25;;;;;;;;;;5041693;28;20464;-84
2023/03/18 09:44:14;;;;;;;23.23;20.58;;;;;;;;;;5044316;28;20467;-85
2023/03/18 09:46:46;;;;;;;26.60;20.95;;;;;;;;;;5045193;28;20503;-83
2023/03/18 09:49:17;;;;;;;27.50;21.80;;;;;;;;;;5042491;28;20418;-83
2023/03/18 09:51:50;;;;;;;28.80;23.08;;;;;;;;;;5042670;28;20423;-82
2023/03/18 09:54:20;;;;;;;26.57;22.00;;;;;;;;;;5041641;28;20438;-83
2023/03/18 09:56:47;;;;;;;34.63;24.90;;;;;;;;;;5045636;28;20514;-81
2023/03/18 09:59:16;;;;;;;32.03;23.85;;;;;;;;;;5048624;28;20416;-81
2023/03/18 10:01:43;;;;;;;29.73;22.70;;;;;;;;;;5046435;28;20440;-82
2023/03/18 10:04:13;;;;;;;31.50;22.83;;;;;;;;;;5043400;28;20415;-83
2023/03/18 10:06:41;;;;;;;26.65;22.38;;;;;;;;;;5045049;28;20831;-82
2023/03/18 10:09:14;;;;;;;28.20;21.53;;;;;;;;;;5041047;28;20427;-80
2023/03/18 10:11:41;;;;;;;28.17;21.73;;;;;;;;;;5043293;28;20896;-82
2023/03/18 10:14:18;;;;;;;25.30;21.27;;;;;;;;;;5037775;28;20483;-83
2023/03/18 10:16:52;;;;;;;28.00;21.45;;;;;;;;;;5065940;28;20427;-79
2023/03/18 10:19:19;;;;;;;28.25;21.88;;;;;;;;;;5064933;28;20782;-79
2023/03/18 10:21:49;;;;;;;24.63;20.50;;;;;;;;;;5063973;28;20425;-80
2023/03/18 10:24:23;;;;;;;26.42;22.10;;;;;;;;;;5062472;28;20443;-79
2023/03/18 10:26:52;;;;;;;26.98;22.02;;;;;;;;;;5062886;28;20434;-82
2023/03/18 10:29:27;;;;;;;27.15;21.52;;;;;;;;;;5064168;28;20414;-80
2023/03/18 10:32:09;;;;;;;26.05;22.30;;;;;;;;;;5068036;28;20469;-78
2023/03/18 10:34:40;;;;;;;28.65;22.80;;;;;;;;;;5061666;28;20419;-79
2023/03/18 10:37:11;;;;;;;31.05;22.98;;;;;;;;;;5065729;28;20441;-82
2023/03/18 10:39:39;;;;;;;25.65;22.67;;;;;;;;;;5061475;28;20422;-81
2023/03/18 10:42:15;;;;;;;31.30;22.90;;;;;;;;;;5066428;28;20500;-81
2023/03/18 10:44:42;;;;;;;27.92;22.33;;;;;;;;;;5068243;28;20424;-79
2023/03/18 10:47:14;;;;;;;33.87;25.37;;;;;;;;;;5061264;28;20918;-79
2023/03/18 10:49:42;;;;;;;33.50;24.85;;;;;;;;;;5064381;28;20429;-80
2023/03/18 10:52:14;;;;;;;29.98;22.83;;;;;;;;;;5063216;28;20425;-80
2023/03/18 10:54:45;;;;;;;30.75;23.95;;;;;;;;;;5062072;28;20421;-82
2023/03/18 10:57:12;;;;;;;29.13;22.92;;;;;;;;;;5062339;28;20459;-78
2023/03/18 10:59:40;;;;;;;29.70;23.63;;;;;;;;;;5062656;28;20515;-78
2023/03/18 11:02:13;;;;;;;29.92;23.27;;;;;;;;;;5059741;28;20431;-79
2023/03/18 11:04:44;;;;;;;31.40;23.92;;;;;;;;;;5062589;28;20795;-78
2023/03/18 11:07:14;;;;;;;29.48;25.15;;;;;;;;;;5058336;28;20440;-79
2023/03/18 11:09:42;;;;;;;30.48;24.98;;;;;;;;;;5060107;28;20422;-80
2023/03/18 11:12:15;;;;;;;31.05;25.27;;;;;;;;;;5061511;28;20427;-79
2023/03/18 11:14:48;;;;;;;32.97;27.40;;;;;;;;;;5064540;28;20439;-79
2023/03/18 11:17:22;;;;;;;35.95;28.45;;;;;;;;;;5065131;28;20455;-79
2023/03/18 11:19:49;;;;;;;36.83;29.60;;;;;;;;;;5061284;28;20496;-80
2023/03/18 11:22:22;;;;;;;36.33;29.88;;;;;;;;;;5062219;28;20428;-79
2023/03/18 11:25:04;;;;;;;37.53;30.65;;;;;;;;;;5062043;28;20430;-80
2023/03/18 11:27:35;;;;;;;38.13;32.00;;;;;;;;;;5056731;28;20425;-80
2023/03/18 11:30:04;;;;;;;35.72;30.58;;;;;;;;;;5061435;28;20415;-81
2023/03/18 11:32:32;;;;;;;38.00;31.30;;;;;;;;;;5062246;28;20923;-79
2023/03/18 11:35:00;;;;;;;35.67;30.75;;;;;;;;;;5058642;28;20430;-78
2023/03/18 11:37:30;;;;;;;38.65;31.13;;;;;;;;;;5059231;28;20439;-81
2023/03/18 11:40:07;;;;;;;38.85;31.50;;;;;;;;;;5060639;28;20787;-80
2023/03/18 11:42:34;;;;;;;36.15;31.65;;;;;;;;;;5061878;28;20429;-79
2023/03/18 11:45:03;;;;;;;39.53;31.60;;;;;;;;;;5064365;28;20470;-79
2023/03/18 11:47:33;;;;;;;39.40;30.98;;;;;;;;;;5064773;28;20433;-80
2023/03/18 11:50:04;;;;;;;45.22;33.92;;;;;;;;;;5065826;28;20419;-79
2023/03/18 11:52:37;;;;;;;40.10;33.05;;;;;;;;;;5062756;28;20431;-79
2023/03/18 11:55:14;;;;;;;41.30;32.53;;;;;;;;;;5065463;28;20419;-81
2023/03/18 11:57:50;;;;;;;39.13;31.40;;;;;;;;;;5061132;28;20425;-80
2023/03/18 12:00:18;;;;;;;41.08;32.22;;;;;;;;;;5058473;28;20762;-78
2023/03/18 12:03:05;;;;;;;41.22;31.45;;;;;;;;;;5063421;28;21015;-82
2023/03/18 12:05:40;;;;;;;39.72;30.95;;;;;;;;;;5063552;28;20419;-79
2023/03/18 12:08:13;;;;;;;36.03;29.37;;;;;;;;;;5059389;28;20429;-79
2023/03/18 12:10:47;;;;;;;37.90;28.73;;;;;;;;;;5061810;28;20439;-79
2023/03/18 12:13:20;;;;;;;37.97;28.85;;;;;;;;;;5058802;28;20451;-79
2023/03/18 12:15:51;;;;;;;36.63;28.65;;;;;;;;;;5065032;28;20431;-81
2023/03/18 12:18:25;;;;;;;29.50;23.90;;;;;;;;;;5063069;28;21132;-80
2023/03/18 12:20:52;;;;;;;29.23;24.17;;;;;;;;;;5065343;28;20435;-80
2023/03/18 12:23:25;;;;;;;26.30;21.10;;;;;;;;;;5065572;28;20401;-82
2023/03/18 12:25:56;;;;;;;21.42;15.63;;;;;;;;;;5065931;28;20417;-81
2023/03/18 12:28:28;;;;;;;16.38;13.73;;;;;;;;;;5066554;28;20463;-79
2023/03/18 12:30:58;;;;;;;16.92;14.10;;;;;;;;;;5064959;28;20509;-80
2023/03/18 12:33:32;;;;;;;16.75;13.95;;;;;;;;;;5060291;28;20810;-79
2023/03/18 12:36:04;;;;;;;17.15;13.30;;;;;;;;;;5064498;28;20427;-79
2023/03/18 12:38:44;;;;;;;18.42;14.27;;;;;;;;;;5064410;28;20498;-80
2023/03/18 12:41:18;;;;;;;16.10;12.98;;;;;;;;;;5062791;28;20440;-78
2023/03/18 12:44:00;;;;;;;17.57;13.80;;;;;;;;;;5064672;28;20431;-79
2023/03/18 12:46:29;;;;;;;16.37;13.03;;;;;;;;;;5065704;28;20473;-80
2023/03/18 12:48:58;;;;;;;16.00;12.07;;;;;;;;;;5063571;28;20426;-79
2023/03/18 12:51:28;;;;;;;15.48;12.50;;;;;;;;;;5062711;28;20447;-80
2023/03/18 12:53:57;;;;;;;16.85;13.88;;;;;;;;;;5070321;28;20446;-82
2023/03/18 12:56:26;;;;;;;16.35;13.20;;;;;;;;;;5062413;28;20479;-80
2023/03/18 12:58:54;;;;;;;16.27;14.07;;;;;;;;;;5067603;28;20512;-80
2023/03/18 13:01:23;;;;;;;16.50;13.93;;;;;;;;;;5062805;28;20462;-80
2023/03/18 13:03:52;;;;;;;16.63;14.35;;;;;;;;;;5066022;28;20484;-79
2023/03/18 13:06:21;;;;;;;19.77;16.65;;;;;;;;;;5066887;28;20431;-82
2023/03/18 13:09:03;;;;;;;20.63;16.95;;;;;;;;;;5062810;28;20429;-80
2023/03/18 13:11:36;;;;;;;19.13;16.05;;;;;;;;;;5062848;28;20442;-80
2023/03/18 13:14:05;;;;;;;19.63;16.08;;;;;;;;;;5063265;28;20419;-81
2023/03/18 13:16:32;;;;;;;16.70;14.85;;;;;;;;;;5063775;28;20462;-80
2023/03/18 13:18:59;;;;;;;18.13;15.93;;;;;;;;;;5066928;28;20435;-81
2023/03/18 13:21:29;;;;;;;20.27;15.10;;;;;;;;;;5064963;28;20908;-81
2023/03/18 13:24:08;;;;;;;15.73;14.02;;;;;;;;;;5068840;28;20463;-81
2023/03/18 13:26:44;;;;;;;14.40;12.40;;;;;;;;;;5060693;28;20435;-81
2023/03/18 13:29:18;;;;;;;13.98;12.27;;;;;;;;;;5068031;28;20773;-81
2023/03/18 13:31:48;;;;;;;16.60;12.57;;;;;;;;;;5066043;28;20480;-82
2023/03/18 13:34:36;;;;;;;14.13;11.80;;;;;;;;;;5062999;28;20424;-82
2023/03/18 13:37:12;;;;;;;14.05;11.73;;;;;;;;;;5067286;28;20924;-82
2023/03/18 13:39:46;;;;;;;14.95;11.30;;;;;;;;;;5068935;28;20429;-81
2023/03/18 13:42:18;;;;;;;14.50;11.55;;;;;;;;;;5066387;28;20432;-81
2023/03/18 13:44:48;;;;;;;15.40;11.38;;;;;;;;;;5066271;28;20436;-83
2023/03/18 13:47:17;;;;;;;14.40;10.67;;;;;;;;;;5062771;28;20422;-82
2023/03/18 13:49:44;;;;;;;11.15;9.77;;;;;;;;;;5064015;28;20941;-81
2023/03/18 13:52:22;;;;;;;10.73;9.00;;;;;;;;;;5066977;28;20473;-83
2023/03/18 13:54:50;;;;;;;11.32;9.38;;;;;;;;;;5067777;28;20431;-82
2023/03/18 13:57:31;;;;;;;11.02;9.95;;;;;;;;;;5065064;28;20436;-82
2023/03/18 14:00:12;;;;;;;11.80;9.10;;;;;;;;;;5065803;28;20904;-83
2023/03/18 14:02:44;;;;;;;11.60;9.70;;;;;;;;;;5070770;28;20779;-81
2023/03/18 14:05:31;;;;;;;11.10;9.70;;;;;;;;;;5051448;28;20436;-83
2023/03/18 14:07:59;;;;;;;12.00;9.20;;;;;;;;;;5060988;28;20446;-81
2023/03/18 14:10:26;;;;;;;10.83;9.73;;;;;;;;;;5062818;28;20437;-81
2023/03/18 14:12:54;;;;;;;14.13;9.02;;;;;;;;;;5059588;28;21091;-81
2023/03/18 14:15:36;;;;;;;11.02;9.68;;;;;;;;;;5062680;28;20438;-80
2023/03/18 14:18:03;;;;;;;11.57;10.02;;;;;;;;;;5062797;28;20434;-80
2023/03/18 14:20:38;;;;;;;9.57;8.77;;;;;;;;;;5063029;28;20451;-80
2023/03/18 14:23:27;;;;;;;10.40;9.35;;;;;;;;;;5059601;28;20423;-80
2023/03/18 14:26:00;;;;;;;9.50;8.23;;;;;;;;;;5062421;28;20439;-79
2023/03/18 14:28:29;;;;;;;9.90;8.90;;;;;;;;;;5064052;28;20502;-81
2023/03/18 14:30:57;;;;;;;9.02;8.13;;;;;;;;;;5061901;28;20465;-80
2023/03/18 14:33:32;;;;;;;10.52;8.13;;;;;;;;;;5059302;28;20403;-80